sensor_id;sensor_type;location;lat;lon;timestamp;pressure;altitude;pressure_sealevel;temperature;humidity
69574;BME280;62840;52.366;5.980;2023-03-14T00:00:24;98709.59;;;10.65;69.68
69574;BME280;62840;52.366;5.980;2023-03-14T00:03:14;98705.06;;;10.66;69.99
69574;BME280;62840;52.366;5.980;2023-03-14T00:06:09;98694.41;;;10.66;70.12
69574;BME280;62840;52.366;5.980;2023-03-14T00:08:52;98704.91;;;10.67;70.19
69574;BME280;62840;52.366;5.980;2023-03-14T00:11:46;98737.19;;;10.73;70.35
69574;BME280;62840;52.366;5.980;2023-03-14T00:14:23;98716.22;;;10.70;70.65
69574;BME280;62840;52.366;5.980;2023-03-14T00:16:54;98735.25;;;10.66;71.09
69574;BME280;62840;52.366;5.980;2023-03-14T00:19:51;98726.41;;;10.66;71.06
69574;BME280;62840;52.366;5.980;2023-03-14T00:22:22;98721.91;;;10.66;70.99
69574;BME280;62840;52.366;5.980;2023-03-14T00:24:58;98730.56;;;10.69;71.05
69574;BME280;62840;52.366;5.980;2023-03-14T00:27:33;98730.91;;;10.65;70.98
69574;BME280;62840;52.366;5.980;2023-03-14T00:30:10;98729.28;;;10.64;71.13
69574;BME280;62840;52.366;5.980;2023-03-14T00:32:59;98718.94;;;10.61;71.04
69574;BME280;62840;52.366;5.980;2023-03-14T00:38:46;98718.00;;;10.54;71.26
69574;BME280;62840;52.366;5.980;2023-03-14T00:41:27;98738.22;;;10.49;71.08
69574;BME280;62840;52.366;5.980;2023-03-14T00:44:12;98729.75;;;10.45;71.26
69574;BME280;62840;52.366;5.980;2023-03-14T00:47:02;98735.44;;;10.42;71.42
69574;BME280;62840;52.366;5.980;2023-03-14T00:49:30;98732.13;;;10.40;71.50
69574;BME280;62840;52.366;5.980;2023-03-14T00:52:04;98730.66;;;10.37;71.53
69574;BME280;62840;52.366;5.980;2023-03-14T00:55:11;98721.81;;;10.37;71.70
69574;BME280;62840;52.366;5.980;2023-03-14T00:57:42;98730.81;;;10.36;71.72
69574;BME280;62840;52.366;5.980;2023-03-14T01:00:19;98714.16;;;10.34;71.83
69574;BME280;62840;52.366;5.980;2023-03-14T01:02:55;98725.84;;;10.33;71.82
69574;BME280;62840;52.366;5.980;2023-03-14T01:05:27;98722.16;;;10.34;72.13
69574;BME280;62840;52.366;5.980;2023-03-14T01:08:10;98721.16;;;10.35;71.98
69574;BME280;62840;52.366;5.980;2023-03-14T01:11:08;98730.81;;;10.36;72.20
69574;BME280;62840;52.366;5.980;2023-03-14T01:13:49;98728.31;;;10.34;72.17
69574;BME280;62840;52.366;5.980;2023-03-14T01:16:41;98724.84;;;10.34;72.18
69574;BME280;62840;52.366;5.980;2023-03-14T01:19:20;98727.50;;;10.34;72.08
69574;BME280;62840;52.366;5.980;2023-03-14T01:21:55;98722.53;;;10.31;72.32
69574;BME280;62840;52.366;5.980;2023-03-14T01:24:28;98728.19;;;10.28;72.16
69574;BME280;62840;52.366;5.980;2023-03-14T01:27:06;98720.84;;;10.30;72.27
69574;BME280;62840;52.366;5.980;2023-03-14T01:29:45;98732.53;;;10.29;72.09
69574;BME280;62840;52.366;5.980;2023-03-14T01:35:23;98730.22;;;10.25;71.95
69574;BME280;62840;52.366;5.980;2023-03-14T01:37:55;98719.53;;;10.25;72.18
69574;BME280;62840;52.366;5.980;2023-03-14T01:40:49;98724.41;;;10.22;72.21
69574;BME280;62840;52.366;5.980;2023-03-14T01:43:27;98721.28;;;10.18;72.34
69574;BME280;62840;52.366;5.980;2023-03-14T01:49:38;98724.63;;;10.12;72.53
69574;BME280;62840;52.366;5.980;2023-03-14T01:52:11;98719.66;;;10.09;72.41
69574;BME280;62840;52.366;5.980;2023-03-14T01:55:11;98721.66;;;10.07;72.41
69574;BME280;62840;52.366;5.980;2023-03-14T01:58:11;98730.47;;;10.08;72.36
69574;BME280;62840;52.366;5.980;2023-03-14T02:00:51;98726.84;;;10.09;72.29
69574;BME280;62840;52.366;5.980;2023-03-14T02:03:31;98723.34;;;10.08;72.52
69574;BME280;62840;52.366;5.980;2023-03-14T02:06:09;98729.66;;;10.07;72.54
69574;BME280;62840;52.366;5.980;2023-03-14T02:09:07;98723.69;;;10.05;72.54
69574;BME280;62840;52.366;5.980;2023-03-14T02:12:09;98719.91;;;9.99;72.74
69574;BME280;62840;52.366;5.980;2023-03-14T02:15:10;98727.22;;;9.97;72.77
69574;BME280;62840;52.366;5.980;2023-03-14T02:17:45;98731.91;;;9.95;72.86
69574;BME280;62840;52.366;5.980;2023-03-14T02:20:38;98712.44;;;9.95;72.83
69574;BME280;62840;52.366;5.980;2023-03-14T02:23:48;98716.28;;;9.92;73.15
69574;BME280;62840;52.366;5.980;2023-03-14T02:26:28;98699.47;;;9.92;73.08
69574;BME280;62840;52.366;5.980;2023-03-14T02:29:37;98708.47;;;9.91;73.02
69574;BME280;62840;52.366;5.980;2023-03-14T02:32:24;98697.16;;;9.89;72.99
69574;BME280;62840;52.366;5.980;2023-03-14T02:35:08;98704.50;;;9.87;72.79
69574;BME280;62840;52.366;5.980;2023-03-14T02:37:46;98702.84;;;9.86;73.00
69574;BME280;62840;52.366;5.980;2023-03-14T02:40:18;98696.66;;;9.85;73.00
69574;BME280;62840;52.366;5.980;2023-03-14T02:43:13;98704.84;;;9.83;73.07
69574;BME280;62840;52.366;5.980;2023-03-14T02:46:04;98705.66;;;9.84;73.10
69574;BME280;62840;52.366;5.980;2023-03-14T02:48:45;98692.53;;;9.82;73.06
69574;BME280;62840;52.366;5.980;2023-03-14T02:51:23;98680.06;;;9.83;73.35
69574;BME280;62840;52.366;5.980;2023-03-14T02:54:10;98683.56;;;9.83;73.01
69574;BME280;62840;52.366;5.980;2023-03-14T02:56:48;98692.34;;;9.84;72.98
69574;BME280;62840;52.366;5.980;2023-03-14T02:59:24;98683.56;;;9.83;73.07
69574;BME280;62840;52.366;5.980;2023-03-14T03:01:59;98684.53;;;9.82;73.01
69574;BME280;62840;52.366;5.980;2023-03-14T03:04:30;98690.53;;;9.84;73.02
69574;BME280;62840;52.366;5.980;2023-03-14T03:07:06;98686.00;;;9.85;73.18
69574;BME280;62840;52.366;5.980;2023-03-14T03:09:46;98684.53;;;9.82;73.15
69574;BME280;62840;52.366;5.980;2023-03-14T03:15:15;98680.22;;;9.81;73.06
69574;BME280;62840;52.366;5.980;2023-03-14T03:18:05;98677.56;;;9.81;72.86
69574;BME280;62840;52.366;5.980;2023-03-14T03:20:44;98675.72;;;9.82;72.82
69574;BME280;62840;52.366;5.980;2023-03-14T03:23:31;98678.22;;;9.83;72.92
69574;BME280;62840;52.366;5.980;2023-03-14T03:26:18;98680.22;;;9.81;73.16
69574;BME280;62840;52.366;5.980;2023-03-14T03:29:06;98676.91;;;9.79;72.94
69574;BME280;62840;52.366;5.980;2023-03-14T03:31:52;98683.88;;;9.80;72.82
69574;BME280;62840;52.366;5.980;2023-03-14T03:34:53;98658.94;;;9.81;72.92
69574;BME280;62840;52.366;5.980;2023-03-14T03:37:26;98673.22;;;9.80;73.00
69574;BME280;62840;52.366;5.980;2023-03-14T03:40:01;98663.59;;;9.79;72.89
69574;BME280;62840;52.366;5.980;2023-03-14T03:42:45;98664.25;;;9.81;72.88
69574;BME280;62840;52.366;5.980;2023-03-14T03:45:21;98672.91;;;9.83;72.74
69574;BME280;62840;52.366;5.980;2023-03-14T03:48:06;98673.72;;;9.84;72.99
69574;BME280;62840;52.366;5.980;2023-03-14T03:51:15;98667.56;;;9.83;73.00
69574;BME280;62840;52.366;5.980;2023-03-14T03:53:45;98671.06;;;9.84;73.03
69574;BME280;62840;52.366;5.980;2023-03-14T03:56:21;98669.22;;;9.84;72.80
69574;BME280;62840;52.366;5.980;2023-03-14T03:59:01;98672.53;;;9.87;73.04
69574;BME280;62840;52.366;5.980;2023-03-14T04:01:47;98668.88;;;9.88;72.81
69574;BME280;62840;52.366;5.980;2023-03-14T04:04:28;98653.91;;;9.87;72.79
69574;BME280;62840;52.366;5.980;2023-03-14T04:07:14;98667.88;;;9.89;72.72
69574;BME280;62840;52.366;5.980;2023-03-14T04:09:53;98665.22;;;9.89;72.96
69574;BME280;62840;52.366;5.980;2023-03-14T04:12:34;98662.38;;;9.90;72.91
69574;BME280;62840;52.366;5.980;2023-03-14T04:15:09;98664.84;;;9.92;72.38
69574;BME280;62840;52.366;5.980;2023-03-14T04:17:54;98658.53;;;9.93;72.57
69574;BME280;62840;52.366;5.980;2023-03-14T04:20:40;98679.47;;;9.96;72.78
69574;BME280;62840;52.366;5.980;2023-03-14T04:23:22;98668.16;;;9.94;72.56
69574;BME280;62840;52.366;5.980;2023-03-14T04:26:00;98663.69;;;9.94;72.64
69574;BME280;62840;52.366;5.980;2023-03-14T04:28:54;98658.38;;;9.94;72.61
69574;BME280;62840;52.366;5.980;2023-03-14T04:31:28;98660.00;;;9.95;72.56
69574;BME280;62840;52.366;5.980;2023-03-14T04:34:02;98655.50;;;9.96;72.81
69574;BME280;62840;52.366;5.980;2023-03-14T04:36:35;98662.50;;;9.97;72.53
69574;BME280;62840;52.366;5.980;2023-03-14T04:39:28;98651.84;;;9.97;72.59
69574;BME280;62840;52.366;5.980;2023-03-14T04:42:05;98655.50;;;9.96;72.48
69574;BME280;62840;52.366;5.980;2023-03-14T04:44:46;98655.50;;;9.96;72.39
69574;BME280;62840;52.366;5.980;2023-03-14T04:50:38;98638.88;;;9.94;72.61
69574;BME280;62840;52.366;5.980;2023-03-14T04:53:17;98641.53;;;9.94;72.57
69574;BME280;62840;52.366;5.980;2023-03-14T04:59:04;98634.56;;;9.93;72.39
69574;BME280;62840;52.366;5.980;2023-03-14T05:02:11;98638.22;;;9.92;72.47
69574;BME280;62840;52.366;5.980;2023-03-14T05:04:46;98638.59;;;9.89;72.55
69574;BME280;62840;52.366;5.980;2023-03-14T05:07:16;98641.25;;;9.89;72.44
69574;BME280;62840;52.366;5.980;2023-03-14T05:09:50;98638.59;;;9.89;72.59
69574;BME280;62840;52.366;5.980;2023-03-14T05:12:31;98634.91;;;9.90;72.48
69574;BME280;62840;52.366;5.980;2023-03-14T05:15:25;98635.75;;;9.90;72.58
69574;BME280;62840;52.366;5.980;2023-03-14T05:18:07;98634.09;;;9.89;72.53
69574;BME280;62840;52.366;5.980;2023-03-14T05:20:42;98633.91;;;9.91;72.45
69574;BME280;62840;52.366;5.980;2023-03-14T05:23:22;98631.25;;;9.91;72.65
69574;BME280;62840;52.366;5.980;2023-03-14T05:25:58;98629.56;;;9.90;72.49
69574;BME280;62840;52.366;5.980;2023-03-14T05:29:05;98626.91;;;9.90;72.56
69574;BME280;62840;52.366;5.980;2023-03-14T05:31:53;98620.59;;;9.91;72.75
69574;BME280;62840;52.366;5.980;2023-03-14T05:34:44;98617.94;;;9.91;72.56
69574;BME280;62840;52.366;5.980;2023-03-14T05:37:35;98619.28;;;9.87;72.82
69574;BME280;62840;52.366;5.980;2023-03-14T05:40:09;98632.97;;;9.83;72.94
69574;BME280;62840;52.366;5.980;2023-03-14T05:42:43;98616.34;;;9.81;73.07
69574;BME280;62840;52.366;5.980;2023-03-14T05:45:18;98624.97;;;9.83;73.25
69574;BME280;62840;52.366;5.980;2023-03-14T05:47:59;98627.00;;;9.81;73.26
69574;BME280;62840;52.366;5.980;2023-03-14T05:50:53;98620.00;;;9.80;73.34
69574;BME280;62840;52.366;5.980;2023-03-14T05:53:26;98630.63;;;9.80;73.26
69574;BME280;62840;52.366;5.980;2023-03-14T05:55:57;98630.63;;;9.80;73.41
69574;BME280;62840;52.366;5.980;2023-03-14T05:58:31;98630.63;;;9.80;73.62
69574;BME280;62840;52.366;5.980;2023-03-14T06:01:21;98634.69;;;9.76;73.81
69574;BME280;62840;52.366;5.980;2023-03-14T06:03:58;98631.38;;;9.74;73.96
69574;BME280;62840;52.366;5.980;2023-03-14T06:06:41;98630.34;;;9.75;74.02
69574;BME280;62840;52.366;5.980;2023-03-14T06:09:20;98631.16;;;9.76;73.67
69574;BME280;62840;52.366;5.980;2023-03-14T06:14:33;98627.69;;;9.75;73.77
69574;BME280;62840;52.366;5.980;2023-03-14T06:17:08;98623.19;;;9.76;74.02
69574;BME280;62840;52.366;5.980;2023-03-14T06:19:47;98622.38;;;9.75;74.07
69574;BME280;62840;52.366;5.980;2023-03-14T06:22:19;98611.72;;;9.75;74.13
69574;BME280;62840;52.366;5.980;2023-03-14T06:25:07;98618.72;;;9.76;74.04
69574;BME280;62840;52.366;5.980;2023-03-14T06:27:45;98621.38;;;9.76;74.12
69574;BME280;62840;52.366;5.980;2023-03-14T06:30:31;98625.69;;;9.77;74.10
69574;BME280;62840;52.366;5.980;2023-03-14T06:33:17;98623.03;;;9.77;74.09
69574;BME280;62840;52.366;5.980;2023-03-14T06:36:04;98624.03;;;9.76;74.53
69574;BME280;62840;52.366;5.980;2023-03-14T06:38:42;98615.72;;;9.71;74.32
69574;BME280;62840;52.366;5.980;2023-03-14T06:41:19;98631.69;;;9.71;74.53
69574;BME280;62840;52.366;5.980;2023-03-14T06:44:03;98629.03;;;9.71;74.26
69574;BME280;62840;52.366;5.980;2023-03-14T06:46:36;98627.22;;;9.72;74.58
69574;BME280;62840;52.366;5.980;2023-03-14T06:49:35;98632.34;;;9.73;74.50
69574;BME280;62840;52.366;5.980;2023-03-14T06:52:05;98632.19;;;9.75;74.38
69574;BME280;62840;52.366;5.980;2023-03-14T06:54:49;98639.00;;;9.77;74.44
69574;BME280;62840;52.366;5.980;2023-03-14T06:57:19;98646.97;;;9.77;74.44
69574;BME280;62840;52.366;5.980;2023-03-14T07:00:04;98644.16;;;9.79;74.52
69574;BME280;62840;52.366;5.980;2023-03-14T07:02:35;98654.97;;;9.77;74.53
69574;BME280;62840;52.366;5.980;2023-03-14T07:05:34;98693.25;;;9.76;74.72
69574;BME280;62840;52.366;5.980;2023-03-14T07:08:14;98733.50;;;9.73;74.55
69574;BME280;62840;52.366;5.980;2023-03-14T07:10:45;98736.84;;;9.67;74.45
69574;BME280;62840;52.366;5.980;2023-03-14T07:13:23;98751.38;;;9.56;74.07
69574;BME280;62840;52.366;5.980;2023-03-14T07:16:02;98762.22;;;9.47;74.04
69574;BME280;62840;52.366;5.980;2023-03-14T07:19:00;98775.22;;;9.33;74.23
69574;BME280;62840;52.366;5.980;2023-03-14T07:21:33;98777.22;;;9.23;73.96
69574;BME280;62840;52.366;5.980;2023-03-14T07:24:20;98793.84;;;9.17;73.84
69574;BME280;62840;52.366;5.980;2023-03-14T07:26:55;98789.53;;;9.08;73.78
69574;BME280;62840;52.366;5.980;2023-03-14T07:32:35;98806.84;;;8.95;73.89
69574;BME280;62840;52.366;5.980;2023-03-14T07:35:26;98810.16;;;8.89;73.78
69574;BME280;62840;52.366;5.980;2023-03-14T07:38:12;98816.78;;;8.85;73.89
69574;BME280;62840;52.366;5.980;2023-03-14T07:40:50;98835.91;;;8.80;73.82
69574;BME280;62840;52.366;5.980;2023-03-14T07:43:50;98855.00;;;8.76;73.74
69574;BME280;62840;52.366;5.980;2023-03-14T07:46:24;98859.78;;;8.72;73.91
69574;BME280;62840;52.366;5.980;2023-03-14T07:48:56;98860.97;;;8.70;73.77
69574;BME280;62840;52.366;5.980;2023-03-14T07:51:46;98880.88;;;8.66;73.87
69574;BME280;62840;52.366;5.980;2023-03-14T07:54:52;98882.38;;;8.60;73.89
69574;BME280;62840;52.366;5.980;2023-03-14T07:57:22;98888.84;;;8.57;73.90
69574;BME280;62840;52.366;5.980;2023-03-14T08:00:01;98905.09;;;8.54;74.00
69574;BME280;62840;52.366;5.980;2023-03-14T08:02:50;98924.69;;;8.53;73.94
69574;BME280;62840;52.366;5.980;2023-03-14T08:05:42;98952.09;;;8.46;73.68
69574;BME280;62840;52.366;5.980;2023-03-14T08:08:54;98963.09;;;8.25;73.01
69574;BME280;62840;52.366;5.980;2023-03-14T08:11:48;98975.59;;;8.06;73.00
69574;BME280;62840;52.366;5.980;2023-03-14T08:14:34;98986.13;;;7.90;72.79
69574;BME280;62840;52.366;5.980;2023-03-14T08:17:10;99005.25;;;7.75;72.81
69574;BME280;62840;52.366;5.980;2023-03-14T08:19:59;99017.94;;;7.64;73.16
69574;BME280;62840;52.366;5.980;2023-03-14T08:22:42;99026.66;;;7.56;73.44
69574;BME280;62840;52.366;5.980;2023-03-14T08:25:32;99044.81;;;7.51;73.04
69574;BME280;62840;52.366;5.980;2023-03-14T08:28:20;99060.94;;;7.40;73.02
69574;BME280;62840;52.366;5.980;2023-03-14T08:30:48;99070.47;;;7.32;73.33
69574;BME280;62840;52.366;5.980;2023-03-14T08:33:30;99084.06;;;7.29;73.36
69574;BME280;62840;52.366;5.980;2023-03-14T08:36:11;99092.59;;;7.23;73.33
69574;BME280;62840;52.366;5.980;2023-03-14T08:38:47;99111.47;;;7.20;73.64
69574;BME280;62840;52.366;5.980;2023-03-14T08:41:36;99119.03;;;7.15;73.21
69574;BME280;62840;52.366;5.980;2023-03-14T08:44:13;99134.53;;;7.10;73.30
69574;BME280;62840;52.366;5.980;2023-03-14T08:46:52;99145.44;;;7.07;73.56
69574;BME280;62840;52.366;5.980;2023-03-14T08:49:39;99152.00;;;7.03;73.52
69574;BME280;62840;52.366;5.980;2023-03-14T08:52:43;99168.19;;;7.00;73.23
69574;BME280;62840;52.366;5.980;2023-03-14T08:55:24;99173.78;;;6.97;73.68
69574;BME280;62840;52.366;5.980;2023-03-14T08:57:57;99196.66;;;6.98;72.99
69574;BME280;62840;52.366;5.980;2023-03-14T09:00:57;99203.09;;;6.95;73.33
69574;BME280;62840;52.366;5.980;2023-03-14T09:03:26;99210.88;;;6.97;73.49
69574;BME280;62840;52.366;5.980;2023-03-14T09:06:39;99223.69;;;7.01;73.73
69574;BME280;62840;52.366;5.980;2023-03-14T09:09:31;99256.34;;;7.02;73.71
69574;BME280;62840;52.366;5.980;2023-03-14T09:12:19;99256.75;;;7.07;73.41
69574;BME280;62840;52.366;5.980;2023-03-14T09:15:18;99270.31;;;7.04;72.51
69574;BME280;62840;52.366;5.980;2023-03-14T09:18:12;99288.88;;;7.04;72.84
69574;BME280;62840;52.366;5.980;2023-03-14T09:20:52;99291.50;;;7.04;73.11
69574;BME280;62840;52.366;5.980;2023-03-14T09:23:27;99315.50;;;7.02;72.40
69574;BME280;62840;52.366;5.980;2023-03-14T09:25:59;99314.69;;;7.02;72.46
69574;BME280;62840;52.366;5.980;2023-03-14T09:28:37;99327.22;;;7.00;72.90
69574;BME280;62840;52.366;5.980;2023-03-14T09:31:18;99334.47;;;6.98;72.51
69574;BME280;62840;52.366;5.980;2023-03-14T09:34:04;99346.19;;;6.95;72.36
69574;BME280;62840;52.366;5.980;2023-03-14T09:36:47;99350.09;;;6.91;72.07
69574;BME280;62840;52.366;5.980;2023-03-14T09:39:42;99359.88;;;6.90;72.62
69574;BME280;62840;52.366;5.980;2023-03-14T09:42:24;99365.19;;;6.90;72.28
69574;BME280;62840;52.366;5.980;2023-03-14T09:45:23;99376.59;;;6.91;72.72
69574;BME280;62840;52.366;5.980;2023-03-14T09:48:08;99389.72;;;6.92;72.81
69574;BME280;62840;52.366;5.980;2023-03-14T09:51:16;99407.28;;;6.93;72.90
69574;BME280;62840;52.366;5.980;2023-03-14T09:54:23;99422.38;;;6.93;72.50
69574;BME280;62840;52.366;5.980;2023-03-14T09:57:02;99422.78;;;6.88;72.21
69574;BME280;62840;52.366;5.980;2023-03-14T09:59:48;99429.88;;;6.88;72.70
69574;BME280;62840;52.366;5.980;2023-03-14T10:02:35;99439.94;;;6.94;72.81
69574;BME280;62840;52.366;5.980;2023-03-14T10:05:16;99445.25;;;7.04;73.10
69574;BME280;62840;52.366;5.980;2023-03-14T10:07:52;99453.34;;;7.12;73.15
69574;BME280;62840;52.366;5.980;2023-03-14T10:10:39;99468.97;;;7.15;72.60
69574;BME280;62840;52.366;5.980;2023-03-14T10:13:18;99493.81;;;7.14;72.92
69574;BME280;62840;52.366;5.980;2023-03-14T10:19:07;99506.34;;;6.92;71.85
69574;BME280;62840;52.366;5.980;2023-03-14T10:22:11;99516.06;;;6.82;72.52
69574;BME280;62840;52.366;5.980;2023-03-14T10:25:10;99528.63;;;6.80;72.60
69574;BME280;62840;52.366;5.980;2023-03-14T10:28:37;99535.84;;;6.78;72.46
69574;BME280;62840;52.366;5.980;2023-03-14T10:31:17;99556.78;;;6.81;72.76
69574;BME280;62840;52.366;5.980;2023-03-14T10:34:21;99559.72;;;6.88;72.63
69574;BME280;62840;52.366;5.980;2023-03-14T10:37:21;99574.25;;;6.93;72.85
69574;BME280;62840;52.366;5.980;2023-03-14T10:43:13;99588.41;;;7.04;72.78
69574;BME280;62840;52.366;5.980;2023-03-14T10:48:52;99612.69;;;7.19;72.44
69574;BME280;62840;52.366;5.980;2023-03-14T10:51:28;99616.06;;;7.21;72.15
69574;BME280;62840;52.366;5.980;2023-03-14T10:54:19;99638.38;;;7.18;72.12
69574;BME280;62840;52.366;5.980;2023-03-14T10:57:13;99658.19;;;7.14;71.62
69574;BME280;62840;52.366;5.980;2023-03-14T10:59:56;99658.19;;;7.14;71.91
69574;BME280;62840;52.366;5.980;2023-03-14T11:03:06;99677.44;;;7.16;71.47
69574;BME280;62840;52.366;5.980;2023-03-14T11:05:53;99679.97;;;7.18;70.44
69574;BME280;62840;52.366;5.980;2023-03-14T11:08:40;99698.13;;;7.22;71.18
69574;BME280;62840;52.366;5.980;2023-03-14T11:11:27;99707.34;;;7.28;70.30
69574;BME280;62840;52.366;5.980;2023-03-14T11:14:28;99711.53;;;7.30;70.43
69574;BME280;62840;52.366;5.980;2023-03-14T11:17:30;99717.56;;;7.32;69.70
69574;BME280;62840;52.366;5.980;2023-03-14T11:23:24;99745.97;;;7.42;69.21
69574;BME280;62840;52.366;5.980;2023-03-14T11:26:25;99768.03;;;7.42;69.33
69574;BME280;62840;52.366;5.980;2023-03-14T11:29:22;99770.41;;;7.45;68.15
69574;BME280;62840;52.366;5.980;2023-03-14T11:32:17;99765.00;;;7.47;68.77
69574;BME280;62840;52.366;5.980;2023-03-14T11:35:19;99791.56;;;7.57;68.26
69574;BME280;62840;52.366;5.980;2023-03-14T11:38:16;99810.25;;;7.55;66.91
69574;BME280;62840;52.366;5.980;2023-03-14T11:41:49;99822.50;;;7.46;65.96
69574;BME280;62840;52.366;5.980;2023-03-14T11:44:39;99829.19;;;7.41;66.70
69574;BME280;62840;52.366;5.980;2023-03-14T11:47:37;99833.03;;;7.37;66.75
69574;BME280;62840;52.366;5.980;2023-03-14T11:50:20;99848.47;;;7.43;66.94
69574;BME280;62840;52.366;5.980;2023-03-14T11:53:03;99848.09;;;7.57;67.47
69574;BME280;62840;52.366;5.980;2023-03-14T11:55:55;99851.09;;;7.73;66.07
69574;BME280;62840;52.366;5.980;2023-03-14T11:58:35;99847.97;;;7.89;66.67
69574;BME280;62840;52.366;5.980;2023-03-14T12:01:44;99867.72;;;8.06;64.75
69574;BME280;62840;52.366;5.980;2023-03-14T12:04:46;99888.44;;;8.12;64.46
69574;BME280;62840;52.366;5.980;2023-03-14T12:07:32;99897.38;;;8.11;63.33
69574;BME280;62840;52.366;5.980;2023-03-14T12:10:17;99884.66;;;8.05;62.25
69574;BME280;62840;52.366;5.980;2023-03-14T12:12:59;99891.19;;;8.01;63.61
69574;BME280;62840;52.366;5.980;2023-03-14T12:16:04;99901.25;;;8.07;63.20
69574;BME280;62840;52.366;5.980;2023-03-14T12:22:23;99916.03;;;7.90;63.40
69574;BME280;62840;52.366;5.980;2023-03-14T12:25:06;99939.19;;;7.88;63.86
69574;BME280;62840;52.366;5.980;2023-03-14T12:28:33;99945.34;;;7.89;62.41
69574;BME280;62840;52.366;5.980;2023-03-14T12:31:40;99953.31;;;7.89;62.95
69574;BME280;62840;52.366;5.980;2023-03-14T12:34:47;99962.41;;;7.96;61.37
69574;BME280;62840;52.366;5.980;2023-03-14T12:37:29;99963.31;;;8.06;61.98
69574;BME280;62840;52.366;5.980;2023-03-14T12:40:39;99963.94;;;8.20;62.20
69574;BME280;62840;52.366;5.980;2023-03-14T12:43:36;99965.69;;;8.30;61.71
69574;BME280;62840;52.366;5.980;2023-03-14T12:46:29;99973.94;;;8.37;59.85
69574;BME280;62840;52.366;5.980;2023-03-14T12:49:07;99978.28;;;8.38;59.06
69574;BME280;62840;52.366;5.980;2023-03-14T12:51:54;99994.50;;;8.35;60.14
69574;BME280;62840;52.366;5.980;2023-03-14T12:54:36;99990.00;;;8.35;58.94
69574;BME280;62840;52.366;5.980;2023-03-14T12:57:31;99997.16;;;8.35;58.87
69574;BME280;62840;52.366;5.980;2023-03-14T13:00:13;100000.06;;;8.32;58.33
69574;BME280;62840;52.366;5.980;2023-03-14T13:02:52;100009.72;;;8.33;57.85
69574;BME280;62840;52.366;5.980;2023-03-14T13:05:37;100006.78;;;8.36;58.77
69574;BME280;62840;52.366;5.980;2023-03-14T13:08:54;100018.53;;;8.33;57.29
69574;BME280;62840;52.366;5.980;2023-03-14T13:11:49;100035.00;;;8.27;58.28
69574;BME280;62840;52.366;5.980;2023-03-14T13:14:45;100038.31;;;8.20;55.83
69574;BME280;62840;52.366;5.980;2023-03-14T13:17:33;100042.19;;;8.15;57.13
69574;BME280;62840;52.366;5.980;2023-03-14T13:20:17;100055.47;;;8.15;57.54
69574;BME280;62840;52.366;5.980;2023-03-14T13:23:21;100050.38;;;8.24;57.50
69574;BME280;62840;52.366;5.980;2023-03-14T13:26:16;100071.34;;;8.27;55.79
69574;BME280;62840;52.366;5.980;2023-03-14T13:29:10;100085.63;;;8.26;56.17
69574;BME280;62840;52.366;5.980;2023-03-14T13:31:54;100092.88;;;8.24;55.74
69574;BME280;62840;52.366;5.980;2023-03-14T13:34:31;100105.16;;;8.25;56.03
69574;BME280;62840;52.366;5.980;2023-03-14T13:37:39;100093.44;;;8.27;55.13
69574;BME280;62840;52.366;5.980;2023-03-14T13:40:47;100101.78;;;8.23;54.84
69574;BME280;62840;52.366;5.980;2023-03-14T13:43:36;100112.41;;;8.23;55.18
69574;BME280;62840;52.366;5.980;2023-03-14T13:46:16;100124.97;;;8.21;54.84
69574;BME280;62840;52.366;5.980;2023-03-14T13:48:57;100132.00;;;8.22;55.86
69574;BME280;62840;52.366;5.980;2023-03-14T13:51:38;100135.88;;;8.17;54.92
69574;BME280;62840;52.366;5.980;2023-03-14T13:54:30;100148.31;;;8.17;54.48
69574;BME280;62840;52.366;5.980;2023-03-14T13:57:12;100152.91;;;8.15;54.50
69574;BME280;62840;52.366;5.980;2023-03-14T14:00:03;100162.44;;;8.17;53.82
69574;BME280;62840;52.366;5.980;2023-03-14T14:03:11;100179.22;;;8.18;55.17
69574;BME280;62840;52.366;5.980;2023-03-14T14:08:58;100198.94;;;8.04;55.03
69574;BME280;62840;52.366;5.980;2023-03-14T14:12:01;100206.50;;;7.88;54.45
69574;BME280;62840;52.366;5.980;2023-03-14T14:14:53;100208.47;;;7.74;52.59
69574;BME280;62840;52.366;5.980;2023-03-14T14:17:34;100222.22;;;7.68;55.78
69574;BME280;62840;52.366;5.980;2023-03-14T14:20:26;100240.44;;;7.62;54.15
69574;BME280;62840;52.366;5.980;2023-03-14T14:23:14;100233.34;;;7.51;53.60
69574;BME280;62840;52.366;5.980;2023-03-14T14:26:06;100244.47;;;7.45;54.19
69574;BME280;62840;52.366;5.980;2023-03-14T14:28:57;100243.00;;;7.41;55.15
69574;BME280;62840;52.366;5.980;2023-03-14T14:32:09;100242.75;;;7.44;54.73
69574;BME280;62840;52.366;5.980;2023-03-14T14:35:05;100247.56;;;7.50;53.91
69574;BME280;62840;52.366;5.980;2023-03-14T14:37:52;100261.56;;;7.52;54.63
69574;BME280;62840;52.366;5.980;2023-03-14T14:40:28;100257.81;;;7.54;54.92
69574;BME280;62840;52.366;5.980;2023-03-14T14:43:05;100269.53;;;7.63;55.26
69574;BME280;62840;52.366;5.980;2023-03-14T14:45:43;100284.72;;;7.72;56.08
69574;BME280;62840;52.366;5.980;2023-03-14T14:48:30;100284.44;;;7.75;54.89
69574;BME280;62840;52.366;5.980;2023-03-14T14:54:38;100296.66;;;7.67;55.23
69574;BME280;62840;52.366;5.980;2023-03-14T14:57:37;100309.81;;;7.68;55.42
69574;BME280;62840;52.366;5.980;2023-03-14T15:00:41;100313.44;;;7.67;53.66
69574;BME280;62840;52.366;5.980;2023-03-14T15:03:34;100330.81;;;7.60;54.73
69574;BME280;62840;52.366;5.980;2023-03-14T15:06:21;100321.63;;;7.53;54.79
69574;BME280;62840;52.366;5.980;2023-03-14T15:09:11;100323.78;;;7.48;55.52
69574;BME280;62840;52.366;5.980;2023-03-14T15:12:10;100336.59;;;7.43;54.47
69574;BME280;62840;52.366;5.980;2023-03-14T15:15:00;100340.88;;;7.32;54.78
69574;BME280;62840;52.366;5.980;2023-03-14T15:17:48;100357.50;;;7.23;55.58
69574;BME280;62840;52.366;5.980;2023-03-14T15:20:39;100364.97;;;7.18;55.45
69574;BME280;62840;52.366;5.980;2023-03-14T15:23:39;100367.00;;;7.14;55.68
69574;BME280;62840;52.366;5.980;2023-03-14T15:26:54;100368.31;;;7.09;56.00
69574;BME280;62840;52.366;5.980;2023-03-14T15:29:35;100372.66;;;7.10;56.13
69574;BME280;62840;52.366;5.980;2023-03-14T15:32:08;100377.72;;;7.13;56.05
69574;BME280;62840;52.366;5.980;2023-03-14T15:34:48;100383.03;;;7.13;55.46